Terminal Aerodrome Forecast
Issued by NWS Denver/Boulder, CO

Home | Current Version | Previous Version | Text Only | Print | Product List | Glossary On
Versions: 1 2 3 4 5 6 7 8 9 10 11 12 13 14 15 16 17 18 19 20 21 22 23 24 25 26 27 28 29 30 31 32 33 34 35 36 37 38 39 40 41 42 43 44 45 46 47 48 49 50
000
FTUS45 KBOU 252103 AAA
TAFDEN
TAF AMD
KDEN 252103Z 2521/2624 32008KT P6SM FEW060 SCT120
     FM252200 27007KT P6SM VCTS SCT080CB BKN120
      TEMPO 2522/2602 VRB15G25KT -TSRA BKN060CB
     FM260400 VRB06KT P6SM VCSH SCT050 BKN080
     FM260600 17011KT P6SM -SHRA SCT020 BKN050
     FM261000 19010KT P6SM SCT020 BKN050 PROB30 2618/2624 VRB06KT
      P6SM -SHRA SCT050 BKN120=

USA.gov is the U.S. government's official web portal to all federal, state and local government web resources and services.